East Wenona, Illinois
Current Conditions -  °F | °C
As of 11:35 PM on Saturday 22 Nov 2014 (Local Time) from KC75 Reporting Station
Overcast Overcast  
Wind Chill: 52°   Ceiling: 1300
Heat Index: 52°   Visibility: 10mi
Dew Point: 47°   Wind: 14mph
Humidity: 84%   Direction: 200°SSW
Pressure: 29.82"   Gusts: 22mph
Location:  41.0632°N, 89.0208°W
Report Text: KC75 230535Z AUTO 20012G19KT 10SM OVC013 11/09 A2982 RMK AO2 T01110085
Loading
Personal Weather Stations






























Interactive Weather Map New forecast layout! Learn more

10-Day Weather Forecast

Advertisements
Track Severe Weather on mobile